createdAt,value
2022-11-10T00:01:45.831Z,78.16
2022-11-10T00:04:12.183Z,76.26
2022-11-10T00:06:38.583Z,76.68
2022-11-10T00:09:05.003Z,76.96
2022-11-10T00:11:31.448Z,76.48
2022-11-10T00:13:57.760Z,77.15
2022-11-10T00:16:24.056Z,77.42
2022-11-10T00:18:50.347Z,77.44
2022-11-10T00:21:16.668Z,76.85
2022-11-10T00:23:42.964Z,76.54
2022-11-10T00:26:09.257Z,76.25
2022-11-10T00:28:35.573Z,76.77
2022-11-10T00:31:01.867Z,76.00
2022-11-10T00:33:28.160Z,76.25
2022-11-10T00:35:54.469Z,76.43
2022-11-10T00:38:20.765Z,77.30
2022-11-10T00:40:47.074Z,76.83
2022-11-10T00:43:13.431Z,76.97
2022-11-10T00:45:39.818Z,75.85
2022-11-10T00:48:06.108Z,76.03
2022-11-10T00:50:32.433Z,76.19
2022-11-10T00:52:58.727Z,77.05
2022-11-10T00:55:25.022Z,76.68
2022-11-10T00:57:51.342Z,76.45
2022-11-10T01:00:17.631Z,76.77
2022-11-10T01:02:43.930Z,76.91
2022-11-10T01:05:10.243Z,76.80
2022-11-10T01:07:36.540Z,76.41
2022-11-10T01:10:02.842Z,76.70
2022-11-10T01:12:29.156Z,77.22
2022-11-10T01:14:55.455Z,78.04
2022-11-10T01:17:21.752Z,78.08
2022-11-10T01:19:48.067Z,78.50
2022-11-10T01:22:14.365Z,78.19
2022-11-10T01:24:40.658Z,78.30
2022-11-10T01:27:07.024Z,77.62
2022-11-10T01:29:33.324Z,77.61
2022-11-10T01:31:59.621Z,76.63
2022-11-10T01:34:25.940Z,77.22
2022-11-10T01:36:52.243Z,77.32
2022-11-10T01:39:18.540Z,77.15
2022-11-10T01:41:44.847Z,77.85
2022-11-10T01:44:11.152Z,77.88
2022-11-10T01:46:37.462Z,76.66
2022-11-10T01:49:03.834Z,77.53
2022-11-10T01:51:30.131Z,77.02
2022-11-10T01:53:56.424Z,77.44
2022-11-10T01:56:22.735Z,77.24
2022-11-10T01:58:49.029Z,77.39
2022-11-10T02:01:15.389Z,76.56
2022-11-10T02:03:41.736Z,77.44
2022-11-10T02:06:08.158Z,77.16
2022-11-10T02:08:34.461Z,76.44
2022-11-10T02:11:00.787Z,77.16
2022-11-10T02:13:27.081Z,77.14
2022-11-10T02:15:53.368Z,77.45
2022-11-10T02:18:19.682Z,77.43
2022-11-10T02:20:45.986Z,77.69
2022-11-10T02:23:12.277Z,77.06
2022-11-10T02:25:38.599Z,77.48
2022-11-10T02:28:04.890Z,77.36
2022-11-10T02:30:31.202Z,77.07
2022-11-10T02:32:57.512Z,76.82
2022-11-10T02:35:23.814Z,77.74
2022-11-10T02:37:50.111Z,77.54
2022-11-10T02:40:16.424Z,77.30
2022-11-10T02:42:42.728Z,77.09
2022-11-10T02:45:09.021Z,77.38
2022-11-10T02:47:35.337Z,78.30
2022-11-10T02:50:01.633Z,78.34
2022-11-10T02:52:27.941Z,79.22
2022-11-10T02:54:54.297Z,78.91
2022-11-10T02:57:20.598Z,78.91
2022-11-10T02:59:46.897Z,78.16
2022-11-10T03:02:13.214Z,79.42
2022-11-10T03:04:39.508Z,79.02
2022-11-10T03:07:05.894Z,78.53
2022-11-10T03:09:32.219Z,78.65
2022-11-10T03:11:58.511Z,79.50
2022-11-10T03:14:24.803Z,78.81
2022-11-10T03:16:51.113Z,79.18
2022-11-10T03:19:17.404Z,79.00
2022-11-10T03:21:43.700Z,79.05
2022-11-10T03:24:10.013Z,78.80
2022-11-10T03:26:36.316Z,78.89
2022-11-10T03:29:02.620Z,77.86
2022-11-10T03:31:28.945Z,78.05
2022-11-10T03:33:55.240Z,78.47
2022-11-10T03:36:21.541Z,78.29
2022-11-10T03:38:47.852Z,78.61
2022-11-10T03:41:21.348Z,78.85
2022-11-10T03:43:47.696Z,78.58
2022-11-10T03:46:14.000Z,78.11
2022-11-10T03:48:40.291Z,77.18
2022-11-10T03:51:06.600Z,77.82
2022-11-10T03:53:32.894Z,77.36
2022-11-10T03:55:59.190Z,77.99
2022-11-10T03:58:25.549Z,77.94
2022-11-10T04:00:51.847Z,78.04
2022-11-10T04:03:18.178Z,78.30
2022-11-10T04:05:44.570Z,77.69
2022-11-10T04:08:10.864Z,77.79
2022-11-10T04:10:37.166Z,77.57
2022-11-10T04:13:03.489Z,77.35
2022-11-10T04:15:29.788Z,77.41
2022-11-10T04:17:56.118Z,78.07
2022-11-10T04:20:22.435Z,77.57
2022-11-10T04:22:48.728Z,78.25
2022-11-10T04:25:15.028Z,77.45
2022-11-10T04:27:41.326Z,77.28
2022-11-10T04:30:07.611Z,77.03
2022-11-10T04:32:33.899Z,77.59
2022-11-10T04:35:00.211Z,77.06
2022-11-10T04:37:26.500Z,77.29
2022-11-10T04:39:52.816Z,77.95
2022-11-10T04:42:19.142Z,77.75
2022-11-10T04:44:45.434Z,78.98
2022-11-10T04:47:12.209Z,77.86
2022-11-10T04:49:38.573Z,77.83
2022-11-10T04:52:04.885Z,77.88
2022-11-10T04:54:31.223Z,77.75
2022-11-10T04:56:57.533Z,78.38
2022-11-10T04:59:23.833Z,78.37
2022-11-10T05:01:50.133Z,78.03
2022-11-10T05:04:16.483Z,78.24
2022-11-10T05:06:42.824Z,77.54
2022-11-10T05:09:09.255Z,77.00
2022-11-10T05:11:35.581Z,77.73
2022-11-10T05:14:01.871Z,76.91
2022-11-10T05:16:28.165Z,77.12
2022-11-10T05:18:54.479Z,77.59
2022-11-10T05:21:20.778Z,77.14
2022-11-10T05:23:47.076Z,76.75
2022-11-10T05:26:13.378Z,77.18
2022-11-10T05:28:39.697Z,76.66
2022-11-10T05:32:12.830Z,77.49
2022-11-10T05:34:39.132Z,77.61
2022-11-10T05:37:05.441Z,77.73
2022-11-10T05:39:31.752Z,77.21
2022-11-10T05:41:58.052Z,77.40
2022-11-10T05:44:24.344Z,77.77
2022-11-10T05:46:50.654Z,77.53
2022-11-10T05:49:16.953Z,76.83
2022-11-10T05:51:43.258Z,76.48
2022-11-10T05:54:09.570Z,76.22
2022-11-10T05:56:35.875Z,76.59
2022-11-10T05:59:02.187Z,76.90
2022-11-10T06:01:28.527Z,76.44
2022-11-10T06:03:54.872Z,76.71
2022-11-10T06:06:21.209Z,76.39
2022-11-10T06:08:49.054Z,76.46
2022-11-10T06:11:17.910Z,76.60
2022-11-10T06:13:51.316Z,76.46
2022-11-10T06:16:27.736Z,76.16
2022-11-10T06:19:11.261Z,75.79
2022-11-10T06:22:07.641Z,75.65
2022-11-10T06:57:41.737Z,73.06
2022-11-10T07:08:31.966Z,74.52
2022-11-10T07:16:46.964Z,73.01
2022-11-10T07:21:56.853Z,74.26
2022-11-10T07:24:23.291Z,74.38
2022-11-10T07:26:51.958Z,73.62
2022-11-10T07:34:46.657Z,74.19
2022-11-10T07:37:14.385Z,72.79
2022-11-10T07:39:41.177Z,73.68
2022-11-10T07:42:07.695Z,73.55
2022-11-10T07:44:34.038Z,74.18
2022-11-10T07:47:00.337Z,72.37
2022-11-10T07:49:26.657Z,73.09
2022-11-10T07:51:52.941Z,73.75
2022-11-10T07:54:19.248Z,73.60
2022-11-10T07:56:45.566Z,70.83
2022-11-10T07:59:11.878Z,72.58
2022-11-10T08:01:38.304Z,72.61
2022-11-10T08:04:04.680Z,73.13
2022-11-10T08:06:35.035Z,73.64
2022-11-10T08:09:02.461Z,74.13
2022-11-10T08:11:28.824Z,72.65
2022-11-10T08:13:55.133Z,71.68
2022-11-10T08:16:21.438Z,72.44
2022-11-10T08:18:47.754Z,71.86
2022-11-10T08:21:14.068Z,72.74
2022-11-10T08:23:40.380Z,72.01
2022-11-10T08:26:06.712Z,71.77
2022-11-10T08:28:33.018Z,70.76
2022-11-10T08:31:04.283Z,72.05
2022-11-10T08:33:31.803Z,69.34
2022-11-10T08:35:58.104Z,70.04
2022-11-10T08:38:24.394Z,68.42
2022-11-10T08:40:50.727Z,68.10
2022-11-10T08:43:17.025Z,69.85
2022-11-10T08:45:43.316Z,66.04
2022-11-10T08:48:09.634Z,65.97
2022-11-10T08:50:35.937Z,67.14
2022-11-10T08:53:02.233Z,66.47
2022-11-10T08:55:28.534Z,65.74
2022-11-10T08:57:54.814Z,67.44
2022-11-10T09:00:21.138Z,64.72
2022-11-10T09:02:47.426Z,63.81
2022-11-10T09:05:13.721Z,65.00
2022-11-10T09:07:40.014Z,64.13
2022-11-10T09:10:07.632Z,62.58
2022-11-10T09:12:34.514Z,63.30
2022-11-10T09:15:00.829Z,62.48
2022-11-10T09:17:29.325Z,62.85
2022-11-10T09:19:56.233Z,62.45
2022-11-10T09:22:23.128Z,62.87
2022-11-10T09:24:50.694Z,64.98
2022-11-10T09:27:17.559Z,65.43
2022-11-10T09:29:44.558Z,67.40
2022-11-10T09:32:11.437Z,68.58
2022-11-10T09:34:38.347Z,68.01
2022-11-10T09:37:05.347Z,68.25
2022-11-10T09:39:32.233Z,69.41
2022-11-10T09:41:58.645Z,68.33
2022-11-10T09:44:24.953Z,68.78
2022-11-10T09:46:51.348Z,66.91
2022-11-10T09:49:17.653Z,64.29
2022-11-10T09:51:48.166Z,65.63
2022-11-10T09:54:14.722Z,64.37
2022-11-10T09:56:41.025Z,64.88
2022-11-10T09:59:07.379Z,64.64
2022-11-10T10:01:33.818Z,63.71
2022-11-10T10:04:00.202Z,63.20
2022-11-10T10:06:33.926Z,62.19
2022-11-10T10:09:10.262Z,62.04
2022-11-10T10:11:36.616Z,62.55
2022-11-10T10:14:02.968Z,63.15
2022-11-10T10:16:29.343Z,60.55
2022-11-10T10:18:55.699Z,60.56
2022-11-10T10:21:22.047Z,60.49
2022-11-10T10:24:08.517Z,60.58
2022-11-10T10:26:34.785Z,61.00
2022-11-10T10:29:01.159Z,61.00
2022-11-10T10:31:27.498Z,61.87
2022-11-10T10:33:53.849Z,62.83
2022-11-10T10:36:20.216Z,61.80
2022-11-10T10:38:46.569Z,61.87
2022-11-10T10:41:12.909Z,62.38
2022-11-10T10:43:39.278Z,61.63
2022-11-10T10:46:05.624Z,60.58
2022-11-10T10:48:31.967Z,61.56
2022-11-10T10:50:58.324Z,61.23
2022-11-10T10:53:25.521Z,61.56
2022-11-10T10:55:54.227Z,60.84
2022-11-10T10:58:21.009Z,62.56
2022-11-10T11:00:47.643Z,62.00
2022-11-10T11:03:14.047Z,62.05
2022-11-10T11:05:40.421Z,62.46
2022-11-10T11:08:06.777Z,63.31
2022-11-10T11:10:33.121Z,63.16
2022-11-10T11:12:59.493Z,63.56
2022-11-10T11:15:25.888Z,64.57
2022-11-10T11:17:52.240Z,65.90
2022-11-10T11:20:18.602Z,66.64
2022-11-10T11:22:44.984Z,66.60
2022-11-10T11:25:11.322Z,66.71
2022-11-10T11:27:37.722Z,66.59
2022-11-10T11:30:04.064Z,66.72
2022-11-10T11:32:30.407Z,66.56
2022-11-10T11:34:56.774Z,65.70
2022-11-10T11:37:23.109Z,65.31
2022-11-10T11:39:49.464Z,66.05
2022-11-10T11:42:15.846Z,65.17
2022-11-10T11:44:42.202Z,66.48
2022-11-10T11:47:08.560Z,66.06
2022-11-10T11:49:34.919Z,66.80
2022-11-10T11:52:01.260Z,66.53
2022-11-10T11:54:27.609Z,67.10
2022-11-10T11:56:53.975Z,68.40
2022-11-10T11:59:20.320Z,66.80
2022-11-10T12:01:46.674Z,66.67
2022-11-10T12:04:13.041Z,65.83
2022-11-10T12:06:39.462Z,65.56
2022-11-10T12:09:05.822Z,64.55
2022-11-10T12:11:32.195Z,65.94
2022-11-10T12:13:58.544Z,65.76
2022-11-10T12:16:24.900Z,64.13
2022-11-10T12:18:51.259Z,64.86
2022-11-10T12:21:17.603Z,65.31
2022-11-10T12:23:43.960Z,65.08
2022-11-10T12:26:10.411Z,64.86
2022-11-10T12:28:36.760Z,65.43
2022-11-10T12:31:03.096Z,63.77
2022-11-10T12:33:29.527Z,62.60
2022-11-10T12:35:55.878Z,62.30
2022-11-10T12:38:22.440Z,63.24
2022-11-10T12:40:49.009Z,65.04
2022-11-10T12:43:15.358Z,64.01
2022-11-10T12:45:41.702Z,62.78
2022-11-10T12:48:08.064Z,63.44
2022-11-10T12:50:34.406Z,62.44
2022-11-10T12:53:02.828Z,61.94
2022-11-10T12:55:29.593Z,62.69
2022-11-10T12:57:55.968Z,61.21
2022-11-10T13:00:27.389Z,61.06
2022-11-10T13:02:54.248Z,61.45
2022-11-10T13:05:20.606Z,62.42
2022-11-10T13:07:46.967Z,60.63
2022-11-10T13:10:13.339Z,60.34
2022-11-10T13:12:39.688Z,60.49
2022-11-10T13:15:06.050Z,61.68
2022-11-10T13:17:32.411Z,61.59
2022-11-10T13:20:09.385Z,61.05
2022-11-10T13:22:45.084Z,61.54
2022-11-10T13:25:11.496Z,61.57
2022-11-10T13:27:37.879Z,60.64
2022-11-10T13:30:04.246Z,60.23
2022-11-10T13:32:30.608Z,59.59
2022-11-10T13:34:56.946Z,61.55
2022-11-10T13:37:23.359Z,61.98
2022-11-10T13:39:49.711Z,62.60
2022-11-10T13:42:16.052Z,62.57
2022-11-10T13:44:42.441Z,62.41
2022-11-10T13:47:08.805Z,62.74
2022-11-10T13:49:35.170Z,63.65
2022-11-10T13:52:01.626Z,63.30
2022-11-10T13:54:27.991Z,63.55
2022-11-10T13:56:54.334Z,61.54
2022-11-10T13:59:20.708Z,61.12
2022-11-10T14:01:47.054Z,61.09
2022-11-10T14:04:13.432Z,59.62
2022-11-10T14:06:39.876Z,59.96
2022-11-10T14:09:06.300Z,60.21
2022-11-10T14:11:32.651Z,59.79
2022-11-10T14:13:59.026Z,59.14
2022-11-10T14:16:25.368Z,59.81
2022-11-10T14:18:51.718Z,59.84
2022-11-10T14:21:18.084Z,59.17
2022-11-10T14:23:44.434Z,59.86
2022-11-10T14:26:10.835Z,59.98
2022-11-10T14:28:37.189Z,60.96
2022-11-10T14:31:03.530Z,60.15
2022-11-10T14:33:29.930Z,60.16
2022-11-10T14:35:56.592Z,60.73
2022-11-10T14:38:23.386Z,59.82
2022-11-10T14:40:50.056Z,59.72
2022-11-10T14:43:16.429Z,59.26
2022-11-10T14:45:42.794Z,59.04
2022-11-10T14:48:09.151Z,59.91
2022-11-10T14:50:35.516Z,60.46
2022-11-10T14:53:01.957Z,60.20
2022-11-10T14:55:28.504Z,60.00
2022-11-10T14:57:55.116Z,59.27
2022-11-10T15:00:21.465Z,60.04
2022-11-10T15:02:47.898Z,60.62
2022-11-10T15:05:14.306Z,60.04
2022-11-10T15:07:40.654Z,61.10
2022-11-10T15:10:07.009Z,60.52
2022-11-10T15:12:36.927Z,60.61
2022-11-10T15:15:05.829Z,60.78
2022-11-10T15:17:32.171Z,60.97
2022-11-10T15:19:58.536Z,62.30
2022-11-10T15:22:24.878Z,61.38
2022-11-10T15:24:51.229Z,61.14
2022-11-10T15:27:17.603Z,60.74
2022-11-10T15:29:43.946Z,61.58
2022-11-10T15:32:10.283Z,61.59
2022-11-10T15:34:36.644Z,61.50
2022-11-10T15:37:02.984Z,61.83
2022-11-10T15:39:29.367Z,61.82
2022-11-10T15:41:55.775Z,62.10
2022-11-10T15:44:22.113Z,61.51
2022-11-10T15:46:48.482Z,61.17
2022-11-10T15:49:14.889Z,61.42
2022-11-10T15:51:41.235Z,61.43
2022-11-10T15:54:11.698Z,60.87
2022-11-10T15:56:38.083Z,60.59
2022-11-10T15:59:04.418Z,60.57
2022-11-10T16:01:30.801Z,59.91
2022-11-10T16:03:57.189Z,60.73
2022-11-10T16:06:23.522Z,60.51
2022-11-10T16:08:49.857Z,60.34
2022-11-10T16:11:16.229Z,59.57
2022-11-10T16:13:42.577Z,60.12
2022-11-10T16:16:08.919Z,60.09
2022-11-10T16:18:35.965Z,59.96
2022-11-10T16:21:04.306Z,60.05
2022-11-10T16:23:30.659Z,60.19
2022-11-10T16:25:57.022Z,60.72
2022-11-10T16:28:23.588Z,61.34
2022-11-10T16:30:50.175Z,61.17
2022-11-10T16:33:16.545Z,60.82
2022-11-10T16:35:42.887Z,61.17
2022-11-10T16:38:09.236Z,60.81
2022-11-10T16:40:35.599Z,60.63
2022-11-10T16:43:01.944Z,60.49
2022-11-10T16:45:28.286Z,61.11
2022-11-10T16:47:54.633Z,61.12
2022-11-10T16:50:20.976Z,61.68
2022-11-10T16:52:47.332Z,60.66
2022-11-10T16:55:13.735Z,61.09
2022-11-10T16:57:40.218Z,61.35
2022-11-10T17:00:06.610Z,61.04
2022-11-10T17:02:32.972Z,60.95
2022-11-10T17:04:59.315Z,60.60
2022-11-10T17:07:25.654Z,60.95
2022-11-10T17:09:52.011Z,60.92
2022-11-10T17:12:18.371Z,61.52
2022-11-10T17:14:44.702Z,61.62
2022-11-10T17:17:11.061Z,61.04
2022-11-10T17:19:37.399Z,61.82
2022-11-10T17:22:03.746Z,62.03
2022-11-10T17:24:30.110Z,62.43
2022-11-10T17:26:56.450Z,62.11
2022-11-10T17:29:22.796Z,62.75
2022-11-10T17:31:49.163Z,62.82
2022-11-10T17:34:15.517Z,62.98
2022-11-10T17:36:41.864Z,63.52
2022-11-10T17:39:08.233Z,63.48
2022-11-10T17:41:34.588Z,62.81
2022-11-10T17:44:00.924Z,62.44
2022-11-10T17:46:27.289Z,62.88
2022-11-10T17:48:54.680Z,62.89
2022-11-10T17:51:21.117Z,62.46
2022-11-10T17:53:47.474Z,61.93
2022-11-10T17:56:13.811Z,62.90
2022-11-10T17:58:40.198Z,63.19
2022-11-10T18:01:06.636Z,63.53
2022-11-10T18:03:32.993Z,63.95
2022-11-10T18:05:59.346Z,62.92
2022-11-10T18:08:25.701Z,63.20
2022-11-10T18:10:52.048Z,63.37
2022-11-10T18:13:18.407Z,63.46
2022-11-10T18:15:44.809Z,63.31
2022-11-10T18:18:11.158Z,62.74
2022-11-10T18:20:37.494Z,62.49
2022-11-10T18:23:03.856Z,62.82
2022-11-10T18:25:30.213Z,63.63
2022-11-10T18:27:56.549Z,63.74
2022-11-10T18:30:22.913Z,63.51
2022-11-10T18:32:49.272Z,64.26
2022-11-10T18:35:15.694Z,64.40
2022-11-10T18:37:42.068Z,64.40
2022-11-10T18:40:08.411Z,63.84
2022-11-10T18:42:34.756Z,65.27
2022-11-10T18:45:01.104Z,64.90
2022-11-10T18:47:27.441Z,64.60
2022-11-10T18:49:53.874Z,66.19
2022-11-10T18:52:20.261Z,65.21
2022-11-10T18:54:46.603Z,65.09
2022-11-10T18:57:12.950Z,65.01
2022-11-10T18:59:39.311Z,66.10
2022-11-10T19:02:05.701Z,65.38
2022-11-10T19:04:32.082Z,65.42
2022-11-10T19:06:58.572Z,65.82
2022-11-10T19:09:24.969Z,65.92
2022-11-10T19:11:51.307Z,65.59
2022-11-10T19:14:17.663Z,65.30
2022-11-10T19:16:43.998Z,65.52
2022-11-10T19:19:10.347Z,65.08
2022-11-10T19:21:36.702Z,64.85
2022-11-10T19:24:03.052Z,65.19
2022-11-10T19:26:29.399Z,65.58
2022-11-10T19:28:55.752Z,65.59
2022-11-10T19:31:22.077Z,65.41
2022-11-10T19:33:48.405Z,65.71
2022-11-10T19:36:14.767Z,65.15
2022-11-10T19:38:41.122Z,64.72
2022-11-10T19:41:07.456Z,65.26
2022-11-10T19:43:33.824Z,65.34
2022-11-10T19:46:00.253Z,65.42
2022-11-10T19:48:26.585Z,65.35
2022-11-10T19:50:52.951Z,64.15
2022-11-10T19:53:19.479Z,65.12
2022-11-10T19:55:46.051Z,64.41
2022-11-10T19:58:12.411Z,64.45
2022-11-10T20:00:38.760Z,64.33
2022-11-10T20:03:05.106Z,64.07
2022-11-10T20:05:31.466Z,64.41
2022-11-10T20:07:57.797Z,64.26
2022-11-10T20:10:24.152Z,64.80
2022-11-10T20:12:50.592Z,65.19
2022-11-10T20:15:16.944Z,65.03
2022-11-10T20:17:43.292Z,64.27
2022-11-10T20:20:09.654Z,65.43
2022-11-10T20:22:35.998Z,65.75
2022-11-10T20:25:02.349Z,66.43
2022-11-10T20:27:28.976Z,67.00
2022-11-10T20:29:55.330Z,67.33
2022-11-10T20:32:21.881Z,67.49
2022-11-10T20:34:48.283Z,67.31
2022-11-10T20:37:14.832Z,67.64
2022-11-10T20:39:41.188Z,67.27
2022-11-10T20:42:07.564Z,67.79
2022-11-10T20:44:34.073Z,67.35
2022-11-10T20:47:00.644Z,68.05
2022-11-10T20:49:27.199Z,67.31
2022-11-10T20:51:53.753Z,67.65
2022-11-10T20:54:20.260Z,67.13
2022-11-10T20:56:46.620Z,67.27
2022-11-10T20:59:12.968Z,67.62
2022-11-10T21:01:39.398Z,67.96
2022-11-10T21:04:05.990Z,67.66
2022-11-10T21:06:32.426Z,67.74
2022-11-10T21:08:58.808Z,67.74
2022-11-10T21:11:28.848Z,67.75
2022-11-10T21:13:58.606Z,68.08
2022-11-10T21:16:24.973Z,67.26
2022-11-10T21:18:51.326Z,66.70
2022-11-10T21:21:17.661Z,66.63
2022-11-10T21:23:44.017Z,65.54
2022-11-10T21:26:10.590Z,65.63
2022-11-10T21:28:36.923Z,65.81
2022-11-10T21:31:03.300Z,65.69
2022-11-10T21:33:29.863Z,65.47
2022-11-10T21:35:56.320Z,65.99
2022-11-10T21:38:22.683Z,65.27
2022-11-10T21:40:49.031Z,65.15
2022-11-10T21:43:15.642Z,65.48
2022-11-10T21:45:41.997Z,65.73
2022-11-10T21:48:08.350Z,65.87
2022-11-10T21:50:34.686Z,65.74
2022-11-10T21:53:01.203Z,66.17
2022-11-10T21:55:27.571Z,65.87
2022-11-10T21:57:53.971Z,66.59
2022-11-10T22:00:20.341Z,66.66
2022-11-10T22:02:46.686Z,67.33
2022-11-10T22:05:13.032Z,68.45
2022-11-10T22:07:39.419Z,69.65
2022-11-10T22:10:05.767Z,69.93
2022-11-10T22:12:32.107Z,69.45
2022-11-10T22:14:58.465Z,69.00
2022-11-10T22:17:24.806Z,68.79
2022-11-10T22:19:51.151Z,68.43
2022-11-10T22:22:17.555Z,68.26
2022-11-10T22:24:43.896Z,68.17
2022-11-10T22:27:10.246Z,68.04
2022-11-10T22:29:36.615Z,68.86
2022-11-10T22:32:02.982Z,67.83
2022-11-10T22:34:29.351Z,68.07
2022-11-10T22:36:55.738Z,67.72
2022-11-10T22:39:22.104Z,67.64
2022-11-10T22:41:48.446Z,67.63
2022-11-10T22:44:14.839Z,68.04
2022-11-10T22:46:41.189Z,67.29
2022-11-10T22:49:07.539Z,67.80
2022-11-10T22:51:33.908Z,68.38
2022-11-10T22:54:00.258Z,68.68
2022-11-10T22:56:26.599Z,68.11
2022-11-10T22:58:57.012Z,67.93
2022-11-10T23:01:26.141Z,68.22
2022-11-10T23:03:52.546Z,68.60
2022-11-10T23:06:18.888Z,68.05
2022-11-10T23:08:45.238Z,68.25
2022-11-10T23:11:11.603Z,68.46
2022-11-10T23:13:37.957Z,67.68
2022-11-10T23:16:04.297Z,67.82
2022-11-10T23:18:30.667Z,68.10
2022-11-10T23:20:57.019Z,67.58
2022-11-10T23:23:23.637Z,67.56
2022-11-10T23:25:50.315Z,67.62
2022-11-10T23:28:16.679Z,68.13
2022-11-10T23:30:43.026Z,68.26
2022-11-10T23:33:09.382Z,68.70
2022-11-10T23:35:35.742Z,69.38
2022-11-10T23:38:02.095Z,69.99
2022-11-10T23:40:28.460Z,69.10
2022-11-10T23:42:54.813Z,69.41
2022-11-10T23:45:21.163Z,69.55
2022-11-10T23:47:47.524Z,69.79
2022-11-10T23:50:13.862Z,70.22
2022-11-10T23:52:40.207Z,71.07
2022-11-10T23:55:06.571Z,70.72
2022-11-10T23:57:32.923Z,70.08
2022-11-10T23:59:59.262Z,70.65
